createdAt,value
2023-03-02T00:01:37.802Z,-0.82
2023-03-02T00:07:45.293Z,-0.81
2023-03-02T00:10:11.912Z,-0.82
2023-03-02T00:12:38.495Z,-0.80
2023-03-02T00:15:05.509Z,-0.79
2023-03-02T00:17:32.026Z,-0.76
2023-03-02T00:20:09.869Z,-0.81
2023-03-02T00:22:38.044Z,-0.80
2023-03-02T00:25:05.360Z,-0.80
2023-03-02T00:27:32.056Z,-0.82
2023-03-02T00:29:58.637Z,-0.74
2023-03-02T00:32:25.679Z,-0.68
2023-03-02T00:34:52.464Z,-0.54
2023-03-02T00:37:20.648Z,-0.52
2023-03-02T00:39:47.163Z,-0.51
2023-03-02T00:42:13.666Z,-0.52
2023-03-02T00:44:40.305Z,-0.53
2023-03-02T00:47:06.852Z,-0.59
2023-03-02T00:49:33.466Z,-0.65
2023-03-02T00:51:59.963Z,-0.65
2023-03-02T00:54:26.639Z,-0.69
2023-03-02T00:56:53.172Z,-0.69
2023-03-02T00:59:28.746Z,-0.81
2023-03-02T01:01:58.342Z,-0.86
2023-03-02T01:04:31.290Z,-0.85
2023-03-02T01:06:59.628Z,-0.88
2023-03-02T01:09:27.015Z,-0.96
2023-03-02T01:11:54.273Z,-1.07
2023-03-02T01:14:21.751Z,-1.10
2023-03-02T01:16:49.846Z,-1.02
2023-03-02T01:19:17.286Z,-1.00
2023-03-02T01:21:44.251Z,-1.02
2023-03-02T01:24:11.516Z,-1.04
2023-03-02T01:26:41.282Z,-1.02
2023-03-02T01:29:08.003Z,-1.00
2023-03-02T01:31:34.549Z,-0.99
2023-03-02T01:34:01.165Z,-1.02
2023-03-02T01:36:31.199Z,-1.12
2023-03-02T01:38:57.859Z,-1.12
2023-03-02T01:41:24.606Z,-1.12
2023-03-02T01:43:51.171Z,-1.08
2023-03-02T01:46:27.045Z,-0.98
2023-03-02T01:49:01.247Z,-0.93
2023-03-02T01:51:30.604Z,-0.99
2023-03-02T01:54:03.338Z,-1.11
2023-03-02T01:56:36.123Z,-1.09
2023-03-02T01:59:07.655Z,-1.07
2023-03-02T02:01:37.921Z,-1.00
2023-03-02T02:04:04.713Z,-0.98
2023-03-02T02:07:02.347Z,-0.97
2023-03-02T02:09:33.571Z,-0.92
2023-03-02T02:12:00.254Z,-1.00
2023-03-02T02:17:32.980Z,-0.88
2023-03-02T02:20:19.583Z,-0.92
2023-03-02T02:23:25.770Z,-0.98
2023-03-02T02:25:58.335Z,-0.95
2023-03-02T02:28:33.713Z,-0.92
2023-03-02T02:31:33.622Z,-0.97
2023-03-02T02:34:08.974Z,-0.94
2023-03-02T02:36:44.598Z,-0.97
2023-03-02T02:39:19.263Z,-0.98
2023-03-02T02:41:47.523Z,-0.93
2023-03-02T02:44:17.270Z,-0.96
2023-03-02T02:46:45.013Z,-1.01
2023-03-02T02:49:29.949Z,-1.01
2023-03-02T02:51:56.811Z,-0.98
2023-03-02T02:54:23.559Z,-1.00
2023-03-02T02:56:53.046Z,-0.93
2023-03-02T02:59:26.829Z,-0.95
2023-03-02T03:01:53.344Z,-0.92
2023-03-02T03:04:28.348Z,-1.00
2023-03-02T03:06:56.298Z,-1.02
2023-03-02T03:09:23.522Z,-1.02
2023-03-02T03:11:56.699Z,-1.05
2023-03-02T03:14:29.208Z,-1.07
2023-03-02T03:16:55.777Z,-1.06
2023-03-02T03:19:24.461Z,-1.12
2023-03-02T03:21:54.609Z,-1.19
2023-03-02T03:24:21.839Z,-1.20
2023-03-02T03:26:48.532Z,-1.18
2023-03-02T03:29:17.104Z,-1.18
2023-03-02T03:31:43.922Z,-1.17
2023-03-02T03:34:11.079Z,-1.09
2023-03-02T03:36:37.858Z,-1.18
2023-03-02T03:39:06.008Z,-1.17
2023-03-02T03:41:33.147Z,-1.14
2023-03-02T03:43:59.876Z,-1.15
2023-03-02T03:46:26.332Z,-1.15
2023-03-02T03:48:52.897Z,-1.12
2023-03-02T03:51:19.655Z,-1.16
2023-03-02T03:56:43.302Z,-1.30
2023-03-02T03:59:12.364Z,-1.22
2023-03-02T04:01:51.782Z,-1.15
2023-03-02T04:04:22.842Z,-1.08
2023-03-02T04:06:49.999Z,-1.08
2023-03-02T04:09:19.370Z,-1.06
2023-03-02T04:11:48.806Z,-1.08
2023-03-02T04:14:18.417Z,-1.12
2023-03-02T04:16:44.908Z,-1.16
2023-03-02T04:19:12.371Z,-1.12
2023-03-02T04:21:42.186Z,-1.06
2023-03-02T04:24:10.025Z,-1.09
2023-03-02T04:26:37.551Z,-1.06
2023-03-02T04:29:04.338Z,-1.05
2023-03-02T04:31:31.355Z,-1.06
2023-03-02T04:33:58.760Z,-1.09
2023-03-02T04:36:25.927Z,-1.12
2023-03-02T04:38:53.036Z,-1.20
2023-03-02T04:41:19.569Z,-1.19
2023-03-02T04:43:46.010Z,-1.29
2023-03-02T04:46:19.972Z,-1.34
2023-03-02T04:48:46.560Z,-1.30
2023-03-02T04:51:24.183Z,-1.30
2023-03-02T04:54:01.166Z,-1.27
2023-03-02T04:56:27.968Z,-1.28
2023-03-02T04:58:55.741Z,-1.38
2023-03-02T05:01:22.883Z,-1.37
2023-03-02T05:03:49.514Z,-1.39
2023-03-02T05:06:16.114Z,-1.43
2023-03-02T05:08:43.755Z,-1.51
2023-03-02T05:11:15.875Z,-1.53
2023-03-02T05:13:42.311Z,-1.59
2023-03-02T05:16:08.794Z,-1.57
2023-03-02T05:18:35.266Z,-1.61
2023-03-02T05:21:01.839Z,-1.61
2023-03-02T05:23:33.505Z,-1.55
2023-03-02T05:26:00.195Z,-1.57
2023-03-02T05:28:27.634Z,-1.61
2023-03-02T05:30:54.693Z,-1.57
2023-03-02T05:33:21.861Z,-1.61
2023-03-02T05:35:48.960Z,-1.66
2023-03-02T05:38:15.638Z,-1.69
2023-03-02T05:40:45.321Z,-1.69
2023-03-02T05:43:16.760Z,-1.67
2023-03-02T05:45:43.278Z,-1.73
2023-03-02T05:48:14.750Z,-1.69
2023-03-02T05:50:41.373Z,-1.73
2023-03-02T05:53:08.196Z,-1.74
2023-03-02T05:55:37.101Z,-1.80
2023-03-02T05:58:09.084Z,-1.82
2023-03-02T06:00:36.051Z,-1.77
2023-03-02T06:03:02.550Z,-1.75
2023-03-02T06:05:29.032Z,-1.76
2023-03-02T06:07:56.119Z,-1.75
2023-03-02T06:10:23.335Z,-1.77
2023-03-02T06:12:50.205Z,-1.80
2023-03-02T06:15:16.860Z,-1.78
2023-03-02T06:17:43.447Z,-1.78
2023-03-02T06:20:11.066Z,-1.86
2023-03-02T06:22:45.288Z,-1.84
2023-03-02T06:25:18.159Z,-1.81
2023-03-02T06:27:45.494Z,-1.87
2023-03-02T06:30:15.480Z,-1.94
2023-03-02T06:32:42.767Z,-1.93
2023-03-02T06:35:10.574Z,-1.95
2023-03-02T06:37:37.208Z,-1.98
2023-03-02T06:40:11.079Z,-1.94
2023-03-02T06:42:38.588Z,-1.96
2023-03-02T06:45:06.738Z,-1.88
2023-03-02T06:47:33.871Z,-1.69
2023-03-02T06:50:01.043Z,-1.41
2023-03-02T06:52:27.619Z,-1.09
2023-03-02T06:54:55.038Z,-0.90
2023-03-02T06:57:21.648Z,-0.69
2023-03-02T06:59:48.099Z,-0.35
2023-03-02T07:02:14.565Z,0.03
2023-03-02T07:04:41.059Z,0.23
2023-03-02T07:07:07.549Z,0.47
2023-03-02T07:09:34.502Z,0.52
2023-03-02T07:12:01.141Z,0.70
2023-03-02T07:14:27.671Z,0.96
2023-03-02T07:16:56.726Z,1.24
2023-03-02T07:19:23.328Z,1.37
2023-03-02T07:21:49.883Z,1.59
2023-03-02T07:24:16.365Z,1.61
2023-03-02T07:26:42.813Z,1.69
2023-03-02T07:29:09.268Z,2.02
2023-03-02T07:31:35.846Z,2.10
2023-03-02T07:34:02.256Z,2.28
2023-03-02T07:36:28.729Z,2.54
2023-03-02T07:38:55.205Z,2.64
2023-03-02T07:41:22.792Z,2.52
2023-03-02T07:43:49.329Z,2.62
2023-03-02T07:46:16.167Z,2.76
2023-03-02T07:48:42.762Z,2.78
2023-03-02T07:51:09.200Z,2.75
2023-03-02T07:53:35.663Z,3.06
2023-03-02T07:56:07.709Z,3.16
2023-03-02T07:58:35.328Z,3.37
2023-03-02T08:01:01.995Z,3.12
2023-03-02T08:03:28.608Z,3.17
2023-03-02T08:05:55.124Z,3.08
2023-03-02T08:08:21.672Z,2.79
2023-03-02T08:10:48.171Z,1.85
2023-03-02T08:13:14.636Z,1.45
2023-03-02T08:15:41.124Z,1.33
2023-03-02T08:18:07.699Z,1.20
2023-03-02T08:20:34.161Z,1.18
2023-03-02T08:23:00.616Z,1.14
2023-03-02T08:25:27.104Z,1.06
2023-03-02T08:27:53.650Z,1.04
2023-03-02T08:30:20.211Z,1.07
2023-03-02T08:32:46.898Z,1.12
2023-03-02T08:35:13.448Z,1.21
2023-03-02T08:37:39.895Z,1.25
2023-03-02T08:40:07.133Z,1.35
2023-03-02T08:42:33.563Z,1.47
2023-03-02T08:45:00.016Z,1.55
2023-03-02T08:47:26.637Z,1.59
2023-03-02T08:49:53.152Z,1.64
2023-03-02T08:52:19.709Z,1.63
2023-03-02T08:54:46.193Z,1.67
2023-03-02T08:57:13.068Z,1.80
2023-03-02T08:59:39.911Z,1.76
2023-03-02T09:02:07.014Z,1.78
2023-03-02T09:04:34.394Z,1.84
2023-03-02T09:07:00.850Z,1.85
2023-03-02T09:09:27.325Z,1.95
2023-03-02T09:11:53.808Z,2.01
2023-03-02T09:14:20.407Z,1.98
2023-03-02T09:16:47.323Z,2.11
2023-03-02T09:19:14.559Z,2.24
2023-03-02T09:21:41.105Z,2.32
2023-03-02T09:24:07.821Z,2.30
2023-03-02T09:26:34.968Z,2.32
2023-03-02T09:29:01.865Z,2.34
2023-03-02T09:31:30.205Z,2.36
2023-03-02T09:33:57.105Z,2.36
2023-03-02T09:36:25.341Z,2.52
2023-03-02T09:38:51.961Z,2.57
2023-03-02T09:41:21.455Z,2.74
2023-03-02T09:44:09.770Z,2.83
2023-03-02T09:46:47.880Z,2.87
2023-03-02T09:49:28.501Z,3.09
2023-03-02T09:52:11.747Z,3.10
2023-03-02T09:54:38.873Z,3.19
2023-03-02T09:57:20.842Z,3.25
2023-03-02T09:59:59.870Z,3.36
2023-03-02T10:02:41.486Z,3.40
2023-03-02T10:05:16.428Z,3.64
2023-03-02T10:07:43.219Z,3.71
2023-03-02T10:10:24.553Z,3.82
2023-03-02T10:13:12.230Z,3.94
2023-03-02T10:15:48.982Z,4.05
2023-03-02T10:18:24.950Z,4.12
2023-03-02T10:20:56.764Z,4.16
2023-03-02T10:23:30.392Z,4.20
2023-03-02T10:26:20.832Z,4.42
2023-03-02T10:28:49.930Z,4.51
2023-03-02T10:31:28.007Z,4.73
2023-03-02T10:33:57.826Z,4.82
2023-03-02T10:36:38.647Z,4.87
2023-03-02T10:39:13.047Z,4.95
2023-03-02T10:42:03.027Z,4.95
2023-03-02T10:44:39.390Z,5.05
2023-03-02T10:47:07.643Z,5.16
2023-03-02T10:49:39.346Z,5.32
2023-03-02T10:52:13.358Z,5.47
2023-03-02T10:54:40.764Z,5.68
2023-03-02T10:57:35.159Z,5.73
2023-03-02T11:00:13.487Z,5.84
2023-03-02T11:03:04.794Z,6.00
2023-03-02T11:05:39.857Z,6.07
2023-03-02T11:08:16.586Z,6.01
2023-03-02T11:11:01.227Z,6.13
2023-03-02T11:13:29.644Z,6.29
2023-03-02T11:16:02.201Z,6.29
2023-03-02T11:18:37.381Z,6.42
2023-03-02T11:21:11.574Z,6.32
2023-03-02T11:24:13.885Z,6.32
2023-03-02T11:26:54.909Z,6.59
2023-03-02T11:29:46.664Z,6.76
2023-03-02T11:32:29.029Z,6.83
2023-03-02T11:35:09.647Z,6.76
2023-03-02T11:37:48.119Z,6.86
2023-03-02T11:40:52.661Z,6.85
2023-03-02T11:43:19.379Z,6.93
2023-03-02T11:45:52.202Z,7.05
2023-03-02T11:48:25.861Z,7.26
2023-03-02T11:51:04.210Z,7.30
2023-03-02T11:53:46.830Z,7.41
2023-03-02T11:56:13.756Z,7.35
2023-03-02T11:58:43.488Z,7.17
2023-03-02T12:01:20.860Z,7.21
2023-03-02T12:03:49.514Z,7.22
2023-03-02T12:06:22.188Z,7.50
2023-03-02T12:08:52.535Z,7.39
2023-03-02T12:11:18.956Z,7.51
2023-03-02T12:13:49.331Z,7.59
2023-03-02T12:16:36.538Z,7.65
2023-03-02T12:19:34.282Z,7.83
2023-03-02T12:22:07.269Z,7.74
2023-03-02T12:24:36.229Z,7.88
2023-03-02T12:27:25.735Z,7.90
2023-03-02T12:30:10.780Z,7.87
2023-03-02T12:32:38.004Z,7.98
2023-03-02T12:35:07.409Z,8.20
2023-03-02T12:38:06.658Z,8.24
2023-03-02T12:40:53.539Z,8.34
2023-03-02T12:43:26.693Z,8.35
2023-03-02T12:46:29.003Z,8.27
2023-03-02T12:49:35.344Z,8.27
2023-03-02T12:52:18.055Z,8.30
2023-03-02T12:54:44.567Z,8.35
2023-03-02T12:57:16.724Z,8.34
2023-03-02T12:59:50.859Z,8.44
2023-03-02T13:02:26.365Z,8.50
2023-03-02T13:04:56.395Z,8.51
2023-03-02T13:07:26.600Z,8.54
2023-03-02T13:09:56.990Z,8.58
2023-03-02T13:12:28.808Z,8.69
2023-03-02T13:14:58.323Z,8.44
2023-03-02T13:17:33.177Z,8.31
2023-03-02T13:20:03.405Z,8.31
2023-03-02T13:22:30.252Z,8.32
2023-03-02T13:25:01.997Z,8.34
2023-03-02T13:27:28.631Z,8.32
2023-03-02T13:29:56.586Z,8.43
2023-03-02T13:32:23.069Z,8.55
2023-03-02T13:34:55.736Z,8.61
2023-03-02T13:37:34.567Z,8.34
2023-03-02T13:40:04.231Z,8.16
2023-03-02T13:42:41.127Z,8.09
2023-03-02T13:45:31.780Z,8.15
2023-03-02T13:48:00.229Z,8.19
2023-03-02T13:50:32.082Z,8.17
2023-03-02T13:53:03.999Z,8.23
2023-03-02T13:55:30.541Z,8.28
2023-03-02T13:57:58.173Z,8.32
2023-03-02T14:00:32.379Z,8.26
2023-03-02T14:02:59.082Z,8.33
2023-03-02T14:05:33.079Z,8.42
2023-03-02T14:08:00.399Z,8.37
2023-03-02T14:10:27.149Z,8.30
2023-03-02T14:13:08.517Z,8.29
2023-03-02T14:15:40.416Z,8.18
2023-03-02T14:18:18.394Z,8.12
2023-03-02T14:20:44.827Z,8.15
2023-03-02T14:23:11.337Z,8.27
2023-03-02T14:25:37.908Z,8.17
2023-03-02T14:28:04.631Z,8.14
2023-03-02T14:30:31.205Z,8.10
2023-03-02T14:32:57.688Z,8.15
2023-03-02T14:35:25.402Z,8.12
2023-03-02T14:37:51.897Z,8.20
2023-03-02T14:40:27.792Z,8.09
2023-03-02T14:42:54.506Z,8.05
2023-03-02T14:45:21.752Z,8.10
2023-03-02T14:47:48.924Z,8.08
2023-03-02T14:50:16.945Z,8.04
2023-03-02T14:52:49.449Z,7.93
2023-03-02T14:55:25.852Z,8.03
2023-03-02T14:57:56.084Z,7.94
2023-03-02T15:00:23.199Z,7.92
2023-03-02T15:02:50.334Z,7.91
2023-03-02T15:05:17.245Z,8.01
2023-03-02T15:07:43.735Z,8.03
2023-03-02T15:10:21.834Z,8.02
2023-03-02T15:12:48.362Z,7.97
2023-03-02T15:15:14.864Z,7.91
2023-03-02T15:17:41.736Z,7.95
2023-03-02T15:20:13.226Z,7.84
2023-03-02T15:22:39.799Z,7.68
2023-03-02T15:25:06.485Z,7.61
2023-03-02T15:27:32.982Z,7.57
2023-03-02T15:30:02.345Z,7.56
2023-03-02T15:32:28.912Z,7.54
2023-03-02T15:34:55.480Z,7.45
2023-03-02T15:37:22.113Z,7.43
2023-03-02T15:39:53.350Z,7.33
2023-03-02T15:42:19.939Z,7.32
2023-03-02T15:44:46.379Z,7.35
2023-03-02T15:47:12.838Z,7.29
2023-03-02T15:49:39.386Z,7.27
2023-03-02T15:52:05.861Z,7.25
2023-03-02T15:54:32.302Z,7.13
2023-03-02T15:56:58.803Z,7.14
2023-03-02T15:59:28.292Z,7.11
2023-03-02T16:01:59.327Z,7.06
2023-03-02T16:04:27.002Z,6.98
2023-03-02T16:06:54.839Z,6.91
2023-03-02T16:09:21.878Z,6.87
2023-03-02T16:11:49.118Z,6.84
2023-03-02T16:14:15.704Z,6.78
2023-03-02T16:16:45.518Z,6.72
2023-03-02T16:19:14.347Z,6.59
2023-03-02T16:21:40.858Z,6.51
2023-03-02T16:24:08.544Z,6.47
2023-03-02T16:26:37.850Z,6.42
2023-03-02T16:29:08.182Z,6.32
2023-03-02T16:31:37.808Z,6.29
2023-03-02T16:34:09.576Z,6.22
2023-03-02T16:36:37.571Z,6.17
2023-03-02T16:39:04.672Z,6.12
2023-03-02T16:41:34.565Z,6.08
2023-03-02T16:44:01.143Z,6.02
2023-03-02T16:46:31.320Z,5.96
2023-03-02T16:48:58.822Z,5.88
2023-03-02T16:51:25.809Z,5.82
2023-03-02T16:53:52.585Z,5.79
2023-03-02T16:56:19.196Z,5.73
2023-03-02T16:58:45.676Z,5.58
2023-03-02T17:01:15.337Z,5.48
2023-03-02T17:03:42.381Z,5.45
2023-03-02T17:06:11.033Z,5.38
2023-03-02T17:08:38.049Z,5.32
2023-03-02T17:11:04.763Z,5.28
2023-03-02T17:13:31.440Z,5.20
2023-03-02T17:15:59.048Z,5.16
2023-03-02T17:18:27.547Z,5.08
2023-03-02T17:20:55.935Z,5.01
2023-03-02T17:23:23.271Z,4.98
2023-03-02T17:25:49.811Z,4.90
2023-03-02T17:28:16.832Z,4.85
2023-03-02T17:30:44.412Z,4.79
2023-03-02T17:33:11.193Z,4.80
2023-03-02T17:35:38.088Z,4.73
2023-03-02T17:38:04.918Z,4.65
2023-03-02T17:40:32.085Z,4.56
2023-03-02T17:42:58.568Z,4.52
2023-03-02T17:45:27.651Z,4.50
2023-03-02T17:47:54.829Z,4.44
2023-03-02T17:50:22.801Z,4.43
2023-03-02T17:52:49.418Z,4.32
2023-03-02T17:55:16.351Z,4.31
2023-03-02T17:57:42.773Z,4.22
2023-03-02T18:00:14.024Z,4.16
2023-03-02T18:02:40.567Z,4.13
2023-03-02T18:05:10.027Z,4.21
2023-03-02T18:07:37.209Z,4.14
2023-03-02T18:10:05.157Z,4.08
2023-03-02T18:12:31.631Z,4.06
2023-03-02T18:14:58.035Z,4.00
2023-03-02T18:17:24.507Z,3.96
2023-03-02T18:19:50.972Z,3.91
2023-03-02T18:22:17.482Z,3.90
2023-03-02T18:24:43.924Z,3.81
2023-03-02T18:27:10.337Z,3.74
2023-03-02T18:29:36.754Z,3.69
2023-03-02T18:32:03.685Z,3.56
2023-03-02T18:34:30.262Z,3.56
2023-03-02T18:36:56.663Z,3.54
2023-03-02T18:39:23.119Z,3.50
2023-03-02T18:41:49.634Z,3.44
2023-03-02T18:44:16.280Z,3.42
2023-03-02T18:46:44.785Z,3.39
2023-03-02T18:49:11.317Z,3.29
2023-03-02T18:51:37.799Z,3.20
2023-03-02T18:54:04.240Z,3.17
2023-03-02T18:56:30.633Z,3.15
2023-03-02T18:58:57.090Z,3.20
2023-03-02T19:01:23.519Z,3.11
2023-03-02T19:03:50.148Z,3.13
2023-03-02T19:06:20.533Z,3.02
2023-03-02T19:08:47.986Z,2.97
2023-03-02T19:11:14.448Z,2.89
2023-03-02T19:13:41.031Z,2.91
2023-03-02T19:16:07.784Z,2.96
2023-03-02T19:18:34.507Z,2.88
2023-03-02T19:21:01.406Z,2.81
2023-03-02T19:23:28.035Z,2.83
2023-03-02T19:25:54.461Z,2.83
2023-03-02T19:28:21.834Z,2.85
2023-03-02T19:30:49.371Z,2.82
2023-03-02T19:33:16.621Z,2.81
2023-03-02T19:35:44.616Z,2.76
2023-03-02T19:38:11.062Z,2.68
2023-03-02T19:40:37.720Z,2.68
2023-03-02T19:43:05.195Z,2.69
2023-03-02T19:45:34.791Z,2.68
2023-03-02T19:48:02.344Z,2.68
2023-03-02T19:50:29.215Z,2.54
2023-03-02T19:52:56.557Z,2.56
2023-03-02T19:55:24.307Z,2.53
2023-03-02T19:57:56.566Z,2.50
2023-03-02T20:00:24.194Z,2.42
2023-03-02T20:02:50.771Z,2.42
2023-03-02T20:05:17.480Z,2.42
2023-03-02T20:07:44.457Z,2.39
2023-03-02T20:10:13.249Z,2.33
2023-03-02T20:12:39.648Z,2.27
2023-03-02T20:15:06.682Z,2.26
2023-03-02T20:17:33.953Z,2.24
2023-03-02T20:20:01.253Z,2.18
2023-03-02T20:22:27.877Z,2.10
2023-03-02T20:24:54.395Z,2.08
2023-03-02T20:27:21.223Z,2.02
2023-03-02T20:29:47.702Z,2.03
2023-03-02T20:32:14.254Z,2.01
2023-03-02T20:34:43.330Z,2.04
2023-03-02T20:37:12.382Z,2.01
2023-03-02T20:39:40.748Z,2.03
2023-03-02T20:42:07.746Z,1.99
2023-03-02T20:44:34.643Z,1.96
2023-03-02T20:47:06.120Z,1.93
2023-03-02T20:49:32.622Z,1.91
2023-03-02T20:51:59.761Z,1.85
2023-03-02T20:54:33.116Z,1.86
2023-03-02T20:56:59.683Z,1.81
2023-03-02T20:59:27.201Z,1.75
2023-03-02T21:01:53.786Z,1.68
2023-03-02T21:04:20.906Z,1.66
2023-03-02T21:06:47.924Z,1.68
2023-03-02T21:09:14.900Z,1.62
2023-03-02T21:11:41.351Z,1.58
2023-03-02T21:14:08.073Z,1.57
2023-03-02T21:16:38.504Z,1.55
2023-03-02T21:19:08.742Z,1.53
2023-03-02T21:21:41.786Z,1.52
2023-03-02T21:24:10.138Z,1.47
2023-03-02T21:26:36.879Z,1.45
2023-03-02T21:29:05.245Z,1.43
2023-03-02T21:31:32.273Z,1.38
2023-03-02T21:34:00.211Z,1.39
2023-03-02T21:36:27.174Z,1.37
2023-03-02T21:38:54.593Z,1.33
2023-03-02T21:41:21.988Z,1.31
2023-03-02T21:43:49.300Z,1.28
2023-03-02T21:46:19.692Z,1.24
2023-03-02T21:48:46.807Z,1.20
2023-03-02T21:51:13.766Z,1.18
2023-03-02T21:53:40.549Z,1.19
2023-03-02T21:56:07.913Z,1.14
2023-03-02T21:58:34.587Z,1.18
2023-03-02T22:01:01.454Z,1.16
2023-03-02T22:03:27.935Z,1.15
2023-03-02T22:05:54.437Z,1.10
2023-03-02T22:08:21.706Z,1.10
2023-03-02T22:10:51.692Z,1.06
2023-03-02T22:13:31.433Z,1.05
2023-03-02T22:16:11.469Z,1.03
2023-03-02T22:18:38.613Z,1.01
2023-03-02T22:21:30.685Z,1.03
2023-03-02T22:24:09.460Z,0.98
2023-03-02T22:26:45.785Z,0.96
2023-03-02T22:29:25.339Z,0.98
2023-03-02T22:31:54.187Z,0.96
2023-03-02T22:34:27.497Z,0.94
2023-03-02T22:37:02.923Z,0.88
2023-03-02T22:39:33.506Z,0.85
2023-03-02T22:42:15.108Z,0.81
2023-03-02T22:44:42.782Z,0.79
2023-03-02T22:47:18.634Z,0.75
2023-03-02T22:49:46.276Z,0.73
2023-03-02T22:52:21.808Z,0.72
2023-03-02T22:54:48.815Z,0.69
2023-03-02T22:57:29.919Z,0.66
2023-03-02T23:00:11.626Z,0.70
2023-03-02T23:02:42.390Z,0.68
2023-03-02T23:05:26.850Z,0.61
2023-03-02T23:08:21.038Z,0.59
2023-03-02T23:10:49.113Z,0.57
2023-03-02T23:13:18.566Z,0.54
2023-03-02T23:15:47.047Z,0.56
2023-03-02T23:18:22.228Z,0.55
2023-03-02T23:20:50.063Z,0.53
2023-03-02T23:23:17.396Z,0.50
2023-03-02T23:25:44.449Z,0.49
2023-03-02T23:28:11.084Z,0.45
2023-03-02T23:30:37.903Z,0.44
2023-03-02T23:33:04.686Z,0.40
2023-03-02T23:35:31.528Z,0.34
2023-03-02T23:37:58.623Z,0.28
2023-03-02T23:40:25.012Z,0.23
2023-03-02T23:42:51.442Z,0.15
2023-03-02T23:45:17.962Z,0.08
2023-03-02T23:47:44.996Z,0.02
2023-03-02T23:50:13.226Z,-0.02
2023-03-02T23:52:40.967Z,-0.05
2023-03-02T23:55:08.837Z,-0.11
2023-03-02T23:57:35.282Z,-0.12
